createdAt,value
2017-05-05T00:01:00.975Z,30.20
2017-05-05T00:03:28.719Z,33.73
2017-05-05T00:05:56.375Z,29.62
2017-05-05T00:08:23.976Z,32.42
2017-05-05T00:10:52.367Z,30.27
2017-05-05T00:13:20.194Z,29.37
2017-05-05T00:15:47.880Z,27.90
2017-05-05T00:18:16.179Z,32.78
2017-05-05T00:20:43.766Z,27.53
2017-05-05T00:23:11.540Z,29.47
2017-05-05T00:25:39.410Z,28.18
2017-05-05T00:28:07.140Z,29.48
2017-05-05T00:30:34.747Z,33.67
2017-05-05T00:33:02.342Z,33.45
2017-05-05T00:35:29.939Z,32.25
2017-05-05T00:37:57.620Z,30.12
2017-05-05T00:40:25.461Z,29.40
2017-05-05T00:42:53.115Z,30.27
2017-05-05T00:45:20.779Z,28.40
2017-05-05T00:47:48.454Z,26.70
2017-05-05T00:50:16.178Z,26.97
2017-05-05T00:52:43.775Z,28.32
2017-05-05T00:55:11.534Z,27.03
2017-05-05T00:57:39.449Z,25.47
2017-05-05T01:00:07.126Z,25.98
2017-05-05T01:02:35.011Z,24.82
2017-05-05T01:05:02.644Z,25.90
2017-05-05T01:07:30.275Z,28.93
2017-05-05T01:09:58.654Z,24.15
2017-05-05T01:12:26.982Z,26.55
2017-05-05T01:14:54.530Z,24.95
2017-05-05T01:17:22.090Z,23.90
2017-05-05T01:19:51.324Z,24.12
2017-05-05T01:22:18.886Z,24.05
2017-05-05T01:24:46.434Z,21.70
2017-05-05T01:27:14.010Z,22.13
2017-05-05T01:29:42.475Z,21.50
2017-05-05T01:32:10.178Z,19.35
2017-05-05T01:34:37.930Z,19.40
2017-05-05T01:37:05.742Z,20.02
2017-05-05T01:39:33.262Z,22.93
2017-05-05T01:42:00.891Z,22.67
2017-05-05T01:44:28.427Z,19.85
2017-05-05T01:46:56.380Z,22.23
2017-05-05T01:49:24.354Z,21.65
2017-05-05T01:51:51.975Z,20.98
2017-05-05T01:54:19.553Z,21.83
2017-05-05T01:56:47.286Z,21.57
2017-05-05T01:59:14.955Z,21.77
2017-05-05T02:01:42.557Z,20.15
2017-05-05T02:04:10.282Z,22.68
2017-05-05T02:06:38.302Z,21.62
2017-05-05T02:09:05.860Z,22.15
2017-05-05T02:11:33.428Z,20.75
2017-05-05T02:14:01.714Z,20.65
2017-05-05T02:16:30.174Z,23.08
2017-05-05T02:18:59.214Z,23.22
2017-05-05T02:21:26.807Z,22.53
2017-05-05T02:23:54.532Z,22.32
2017-05-05T02:26:22.515Z,19.37
2017-05-05T02:28:50.317Z,22.38
2017-05-05T02:31:18.043Z,20.03
2017-05-05T02:33:45.679Z,21.42
2017-05-05T02:36:13.403Z,20.73
2017-05-05T02:38:40.946Z,18.30
2017-05-05T02:41:08.579Z,19.77
2017-05-05T02:43:36.199Z,19.15
2017-05-05T02:46:04.564Z,19.48
2017-05-05T02:48:33.197Z,17.02
2017-05-05T02:51:00.852Z,16.17
2017-05-05T02:53:28.466Z,20.02
2017-05-05T02:55:56.963Z,22.63
2017-05-05T02:58:24.576Z,22.90
2017-05-05T03:00:52.344Z,22.53
2017-05-05T03:03:20.050Z,25.43
2017-05-05T03:05:47.638Z,25.18
2017-05-05T03:08:15.422Z,23.40
2017-05-05T03:10:42.967Z,25.80
2017-05-05T03:13:10.608Z,23.13
2017-05-05T03:15:38.347Z,23.82
2017-05-05T03:18:06.067Z,26.35
2017-05-05T03:20:34.078Z,27.35
2017-05-05T03:23:01.723Z,28.03
2017-05-05T03:25:30.112Z,24.57
2017-05-05T03:27:57.758Z,25.07
2017-05-05T03:30:26.284Z,24.63
2017-05-05T03:32:53.796Z,25.78
2017-05-05T03:35:22.263Z,22.67
2017-05-05T03:37:50.023Z,23.70
2017-05-05T03:40:17.800Z,25.88
2017-05-05T03:42:46.422Z,28.10
2017-05-05T03:45:13.965Z,25.75
2017-05-05T03:47:41.575Z,25.18
2017-05-05T03:50:09.215Z,24.55
2017-05-05T03:52:36.783Z,23.93
2017-05-05T03:55:04.486Z,23.12
2017-05-05T03:57:33.149Z,24.47
2017-05-05T04:00:01.940Z,26.52
2017-05-05T04:02:29.458Z,25.20
2017-05-05T04:04:57.001Z,24.10
2017-05-05T04:07:24.515Z,22.97
2017-05-05T04:09:52.870Z,22.17
2017-05-05T04:12:20.388Z,21.18
2017-05-05T04:14:48.141Z,21.52
2017-05-05T04:17:16.003Z,22.58
2017-05-05T04:19:43.691Z,23.05
2017-05-05T04:22:11.444Z,24.05
2017-05-05T04:24:39.252Z,21.62
2017-05-05T04:27:06.783Z,22.60
2017-05-05T04:29:34.323Z,24.73
2017-05-05T04:32:01.894Z,24.72
2017-05-05T04:34:29.641Z,25.90
2017-05-05T04:36:57.202Z,24.33
2017-05-05T04:39:24.988Z,25.15
2017-05-05T04:41:52.651Z,23.92
2017-05-05T04:44:20.671Z,20.47
2017-05-05T04:46:48.364Z,20.38
2017-05-05T04:49:16.123Z,21.62
2017-05-05T04:51:43.691Z,16.32
2017-05-05T04:54:11.215Z,17.53
2017-05-05T04:56:38.802Z,16.80
2017-05-05T04:59:06.614Z,17.17
2017-05-05T05:01:34.915Z,17.60
2017-05-05T05:04:03.217Z,17.30
2017-05-05T05:06:31.010Z,15.50
2017-05-05T05:08:59.440Z,15.88
2017-05-05T05:11:27.267Z,14.63
2017-05-05T05:13:55.610Z,14.87
2017-05-05T05:16:23.228Z,14.10
2017-05-05T05:18:50.761Z,17.47
2017-05-05T05:21:19.072Z,16.23
2017-05-05T05:23:46.936Z,18.68
2017-05-05T05:26:14.849Z,16.37
2017-05-05T05:28:42.669Z,15.83
2017-05-05T05:31:10.482Z,15.53
2017-05-05T05:33:38.051Z,16.43
2017-05-05T05:36:06.487Z,15.88
2017-05-05T05:38:34.278Z,18.68
2017-05-05T05:41:01.972Z,16.67
2017-05-05T05:43:29.559Z,15.88
2017-05-05T05:45:57.265Z,17.95
2017-05-05T05:48:25.564Z,12.80
2017-05-05T05:50:53.438Z,12.93
2017-05-05T05:53:21.074Z,14.33
2017-05-05T05:55:49.399Z,14.90
2017-05-05T05:58:17.384Z,15.23
2017-05-05T06:00:44.927Z,13.30
2017-05-05T06:03:12.771Z,13.70
2017-05-05T06:05:40.594Z,13.03
2017-05-05T06:08:09.093Z,12.98
2017-05-05T06:10:36.714Z,14.42
2017-05-05T06:13:04.760Z,11.55
2017-05-05T06:15:32.595Z,12.47
2017-05-05T06:18:00.155Z,12.40
2017-05-05T06:20:27.885Z,11.93
2017-05-05T06:22:56.655Z,13.22
2017-05-05T06:25:24.195Z,13.10
2017-05-05T06:27:51.799Z,13.82
2017-05-05T06:30:19.574Z,12.40
2017-05-05T06:32:47.258Z,10.90
2017-05-05T06:35:14.811Z,12.17
2017-05-05T06:37:42.557Z,12.30
2017-05-05T06:40:10.234Z,10.87
2017-05-05T06:42:37.887Z,9.42
2017-05-05T06:45:05.514Z,9.90
2017-05-05T06:47:33.079Z,9.20
2017-05-05T06:50:00.909Z,7.80
2017-05-05T06:52:28.750Z,7.40
2017-05-05T06:54:56.359Z,8.20
2017-05-05T06:57:23.946Z,9.33
2017-05-05T06:59:51.767Z,8.68
2017-05-05T07:02:19.305Z,8.43
2017-05-05T07:04:47.667Z,9.77
2017-05-05T07:07:15.266Z,10.60
2017-05-05T07:09:43.090Z,10.33
2017-05-05T07:12:10.743Z,10.33
2017-05-05T07:14:38.359Z,10.62
2017-05-05T07:17:06.798Z,8.70
2017-05-05T07:19:34.484Z,9.23
2017-05-05T07:22:02.228Z,8.32
2017-05-05T07:24:29.923Z,7.95
2017-05-05T07:26:57.751Z,6.40
2017-05-05T07:29:25.353Z,7.60
2017-05-05T07:31:52.867Z,6.88
2017-05-05T07:34:20.442Z,7.50
2017-05-05T07:36:48.015Z,6.92
2017-05-05T07:39:16.591Z,8.75
2017-05-05T07:41:44.655Z,7.72
2017-05-05T07:44:12.546Z,10.20
2017-05-05T07:46:40.171Z,10.60
2017-05-05T07:49:07.906Z,10.27
2017-05-05T07:51:35.710Z,8.70
2017-05-05T07:54:03.223Z,10.32
2017-05-05T07:56:30.759Z,9.85
2017-05-05T07:58:58.302Z,10.87
2017-05-05T08:01:25.982Z,9.88
2017-05-05T08:03:53.513Z,11.52
2017-05-05T08:06:21.057Z,11.32
2017-05-05T08:08:49.347Z,13.37
2017-05-05T08:11:17.596Z,11.33
2017-05-05T08:13:46.811Z,11.27
2017-05-05T08:16:15.139Z,11.82
2017-05-05T08:18:42.708Z,12.43
2017-05-05T08:21:10.511Z,12.23
2017-05-05T08:23:39.696Z,11.47
2017-05-05T08:26:08.039Z,11.73
2017-05-05T08:28:35.699Z,11.13
2017-05-05T08:31:03.251Z,12.72
2017-05-05T08:33:30.928Z,11.88
2017-05-05T08:35:58.543Z,12.32
2017-05-05T08:38:26.359Z,11.85
2017-05-05T08:40:54.082Z,12.13
2017-05-05T08:43:21.743Z,11.18
2017-05-05T08:45:49.323Z,10.77
2017-05-05T08:48:17.666Z,12.00
2017-05-05T08:50:45.270Z,11.40
2017-05-05T08:53:12.815Z,10.37
2017-05-05T08:55:40.387Z,10.63
2017-05-05T08:58:08.001Z,8.82
2017-05-05T09:00:35.562Z,7.53
2017-05-05T09:03:03.383Z,6.43
2017-05-05T09:05:31.958Z,7.65
2017-05-05T09:07:59.487Z,7.10
2017-05-05T09:10:27.161Z,6.72
2017-05-05T09:12:54.769Z,6.97
2017-05-05T09:15:22.354Z,6.73
2017-05-05T09:17:49.900Z,8.25
2017-05-05T09:20:17.462Z,8.25
2017-05-05T09:22:45.225Z,7.78
2017-05-05T09:25:12.783Z,8.22
2017-05-05T09:27:40.311Z,7.53
2017-05-05T09:30:07.923Z,7.20
2017-05-05T09:32:35.940Z,6.58
2017-05-05T09:35:03.550Z,8.15
2017-05-05T09:37:31.324Z,8.05
2017-05-05T09:39:58.863Z,8.00
2017-05-05T09:42:26.378Z,7.43
2017-05-05T09:44:53.937Z,7.65
2017-05-05T09:47:21.688Z,7.57
2017-05-05T09:49:49.248Z,8.53
2017-05-05T09:52:16.950Z,8.70
2017-05-05T09:54:44.703Z,8.43
2017-05-05T09:57:12.229Z,7.32
2017-05-05T09:59:39.834Z,7.48
2017-05-05T10:02:07.660Z,8.10
2017-05-05T10:04:35.586Z,8.00
2017-05-05T10:07:03.443Z,7.55
2017-05-05T10:09:32.166Z,7.83
2017-05-05T10:12:00.467Z,8.18
2017-05-05T10:14:28.762Z,8.73
2017-05-05T10:16:56.735Z,7.30
2017-05-05T10:19:24.285Z,8.75
2017-05-05T10:21:52.211Z,8.10
2017-05-05T10:24:20.887Z,9.98
2017-05-05T10:26:48.662Z,7.67
2017-05-05T10:29:16.411Z,8.87
2017-05-05T10:31:43.963Z,6.70
2017-05-05T10:34:11.506Z,8.37
2017-05-05T10:36:39.033Z,9.50
2017-05-05T10:39:06.603Z,10.23
2017-05-05T10:41:34.139Z,9.70
2017-05-05T10:44:01.679Z,10.70
2017-05-05T10:46:29.439Z,10.63
2017-05-05T10:48:57.017Z,10.35
2017-05-05T10:51:24.602Z,9.68
2017-05-05T10:53:52.290Z,10.83
2017-05-05T10:56:20.583Z,8.65
2017-05-05T10:58:48.219Z,10.60
2017-05-05T11:01:16.530Z,9.83
2017-05-05T11:03:44.084Z,9.68
2017-05-05T11:06:11.764Z,9.52
2017-05-05T11:08:39.397Z,11.12
2017-05-05T11:11:07.248Z,11.47
2017-05-05T11:13:35.659Z,12.33
2017-05-05T11:16:03.518Z,11.93
2017-05-05T11:18:31.275Z,12.13
2017-05-05T11:20:58.861Z,13.20
2017-05-05T11:23:26.387Z,13.67
2017-05-05T11:25:54.159Z,13.90
2017-05-05T11:28:21.727Z,11.85
2017-05-05T11:30:49.356Z,11.62
2017-05-05T11:33:17.146Z,12.63
2017-05-05T11:35:46.039Z,11.42
2017-05-05T11:38:16.715Z,12.43
2017-05-05T11:40:48.590Z,15.13
2017-05-05T11:43:16.579Z,14.87
2017-05-05T11:45:44.351Z,13.50
2017-05-05T11:48:12.012Z,14.52
2017-05-05T11:50:39.888Z,15.25
2017-05-05T11:53:07.433Z,14.65
2017-05-05T11:55:34.964Z,13.72
2017-05-05T11:58:03.330Z,14.98
2017-05-05T12:00:31.637Z,15.77
2017-05-05T12:02:59.237Z,14.42
2017-05-05T12:05:26.814Z,15.33
2017-05-05T12:07:54.355Z,14.52
2017-05-05T12:10:22.024Z,15.15
2017-05-05T12:12:49.576Z,15.10
2017-05-05T12:15:17.102Z,15.85
2017-05-05T12:17:44.655Z,17.53
2017-05-05T12:20:12.222Z,17.25
2017-05-05T12:22:40.079Z,16.50
2017-05-05T12:25:07.606Z,17.45
2017-05-05T12:27:35.147Z,19.43
2017-05-05T12:30:03.447Z,18.23
2017-05-05T12:32:31.026Z,17.52
2017-05-05T12:34:58.578Z,18.47
2017-05-05T12:37:26.103Z,19.83
2017-05-05T12:39:53.678Z,18.97
2017-05-05T12:42:21.253Z,18.02
2017-05-05T12:44:49.187Z,17.53
2017-05-05T12:47:17.628Z,22.17
2017-05-05T12:49:45.455Z,21.38
2017-05-05T12:52:13.446Z,21.38
2017-05-05T12:54:41.018Z,23.37
2017-05-05T12:57:08.547Z,22.42
2017-05-05T12:59:36.135Z,27.50
2017-05-05T13:02:04.029Z,24.95
2017-05-05T13:04:31.805Z,26.65
2017-05-05T13:06:59.987Z,25.47
2017-05-05T13:09:27.547Z,25.18
2017-05-05T13:11:55.109Z,26.70
2017-05-05T13:14:22.651Z,26.12
2017-05-05T13:16:50.402Z,24.82
2017-05-05T13:19:18.796Z,23.68
2017-05-05T13:21:46.453Z,23.82
2017-05-05T13:24:14.002Z,23.38
2017-05-05T13:26:41.564Z,24.52
2017-05-05T13:29:10.103Z,25.03
2017-05-05T13:31:37.621Z,23.98
2017-05-05T13:34:05.158Z,25.65
2017-05-05T13:36:32.734Z,27.57
2017-05-05T13:39:00.276Z,25.60
2017-05-05T13:41:28.040Z,24.05
2017-05-05T13:43:55.835Z,26.48
2017-05-05T13:46:23.361Z,26.38
2017-05-05T13:48:50.962Z,25.35
2017-05-05T13:51:18.502Z,28.25
2017-05-05T13:53:46.055Z,27.53
2017-05-05T13:56:13.611Z,24.12
2017-05-05T13:58:41.184Z,24.97
2017-05-05T14:01:08.763Z,24.47
2017-05-05T14:03:36.715Z,24.60
2017-05-05T14:06:04.256Z,27.75
2017-05-05T14:08:31.811Z,25.03
2017-05-05T14:10:59.399Z,25.53
2017-05-05T14:13:26.975Z,24.25
2017-05-05T14:15:54.552Z,24.40
2017-05-05T14:18:22.932Z,26.28
2017-05-05T14:20:51.328Z,26.47
2017-05-05T14:23:19.094Z,24.93
2017-05-05T14:25:46.657Z,26.65
2017-05-05T14:28:14.247Z,26.98
2017-05-05T14:30:41.846Z,26.65
2017-05-05T14:33:10.187Z,27.68
2017-05-05T14:35:37.738Z,27.75
2017-05-05T14:38:05.328Z,27.22
2017-05-05T14:40:34.011Z,26.68
2017-05-05T14:43:02.409Z,28.58
2017-05-05T14:45:29.995Z,29.47
2017-05-05T14:47:57.868Z,27.90
2017-05-05T14:50:25.551Z,30.67
2017-05-05T14:52:53.308Z,27.33
2017-05-05T14:55:20.920Z,26.58
2017-05-05T14:57:48.524Z,27.48
2017-05-05T15:00:16.391Z,28.88
2017-05-05T15:02:43.940Z,28.03
2017-05-05T15:05:12.067Z,29.85
2017-05-05T15:07:39.819Z,27.35
2017-05-05T15:10:08.150Z,26.90
2017-05-05T15:12:35.677Z,30.15
2017-05-05T15:15:03.218Z,25.43
2017-05-05T15:17:31.007Z,28.87
2017-05-05T15:19:58.544Z,27.55
2017-05-05T15:22:26.329Z,27.23
2017-05-05T15:24:54.103Z,25.43
2017-05-05T15:27:21.675Z,25.38
2017-05-05T15:29:49.226Z,26.57
2017-05-05T15:32:16.808Z,23.78
2017-05-05T15:34:44.463Z,27.25
2017-05-05T15:37:12.052Z,25.22
2017-05-05T15:39:40.457Z,26.72
2017-05-05T15:42:08.030Z,29.40
2017-05-05T15:44:35.859Z,30.07
2017-05-05T15:47:03.395Z,29.15
2017-05-05T15:49:31.359Z,29.60
2017-05-05T15:51:59.357Z,28.03
2017-05-05T15:54:26.915Z,26.63
2017-05-05T15:56:54.435Z,25.00
2017-05-05T15:59:21.979Z,26.52
2017-05-05T16:01:49.791Z,25.43
2017-05-05T16:04:17.317Z,27.02
2017-05-05T16:06:44.888Z,25.83
2017-05-05T16:09:13.330Z,28.10
2017-05-05T16:11:40.880Z,26.62
2017-05-05T16:14:08.513Z,28.77
2017-05-05T16:16:36.058Z,26.13
2017-05-05T16:19:03.852Z,25.23
2017-05-05T16:21:31.395Z,24.32
2017-05-05T16:23:59.267Z,24.33
2017-05-05T16:26:26.816Z,24.27
2017-05-05T16:28:54.382Z,25.80
2017-05-05T16:31:21.935Z,24.00
2017-05-05T16:33:49.792Z,25.82
2017-05-05T16:36:17.432Z,24.28
2017-05-05T16:38:45.755Z,22.93
2017-05-05T16:41:13.542Z,21.52
2017-05-05T16:43:41.151Z,21.47
2017-05-05T16:46:08.765Z,22.60
2017-05-05T16:48:36.335Z,22.50
2017-05-05T16:51:03.948Z,23.30
2017-05-05T16:53:31.462Z,22.77
2017-05-05T16:55:59.100Z,23.92
2017-05-05T16:58:26.668Z,22.10
2017-05-05T17:00:54.392Z,22.72
2017-05-05T17:03:21.936Z,23.83
2017-05-05T17:05:55.324Z,23.37
2017-05-05T17:08:22.923Z,23.00
2017-05-05T17:10:50.877Z,25.42
2017-05-05T17:13:18.420Z,23.92
2017-05-05T17:15:46.003Z,25.62
2017-05-05T17:18:14.052Z,26.70
2017-05-05T17:20:41.614Z,26.62
2017-05-05T17:23:09.260Z,25.78
2017-05-05T17:25:36.794Z,26.25
2017-05-05T17:28:04.355Z,25.82
2017-05-05T17:30:31.877Z,26.70
2017-05-05T17:33:01.052Z,26.43
2017-05-05T17:35:28.703Z,25.75
2017-05-05T17:37:56.242Z,26.37
2017-05-05T17:40:24.503Z,26.50
2017-05-05T17:42:52.112Z,27.43
2017-05-05T17:45:19.811Z,29.35
2017-05-05T17:47:47.371Z,28.23
2017-05-05T17:50:14.971Z,27.25
2017-05-05T17:52:42.545Z,26.80
2017-05-05T17:55:10.067Z,26.45
2017-05-05T17:57:37.665Z,26.47
2017-05-05T18:00:05.445Z,26.08
2017-05-05T18:02:33.792Z,25.47
2017-05-05T18:05:01.331Z,26.70
2017-05-05T18:07:29.140Z,24.88
2017-05-05T18:09:57.683Z,25.98
2017-05-05T18:12:25.228Z,24.52
2017-05-05T18:14:53.027Z,25.62
2017-05-05T18:17:20.583Z,25.50
2017-05-05T18:19:48.150Z,25.63
2017-05-05T18:22:15.671Z,26.73
2017-05-05T18:24:43.462Z,25.18
2017-05-05T18:27:11.035Z,24.75
2017-05-05T18:29:39.478Z,24.15
2017-05-05T18:32:07.239Z,23.05
2017-05-05T18:34:34.838Z,25.18
2017-05-05T18:37:03.126Z,23.18
2017-05-05T18:39:30.715Z,27.30
2017-05-05T18:41:58.240Z,23.35
2017-05-05T18:44:25.971Z,25.67
2017-05-05T18:46:53.571Z,26.50
2017-05-05T18:49:21.165Z,23.82
2017-05-05T18:51:48.700Z,25.17
2017-05-05T18:54:16.320Z,23.72
2017-05-05T18:56:44.611Z,29.26
2017-05-05T18:59:12.540Z,25.63
2017-05-05T19:01:40.064Z,24.70
2017-05-05T19:04:07.853Z,25.33
2017-05-05T19:06:35.408Z,26.57
2017-05-05T19:09:04.109Z,31.05
2017-05-05T19:11:32.181Z,25.83
2017-05-05T19:14:07.702Z,27.17
2017-05-05T19:16:35.691Z,27.80
2017-05-05T19:19:03.314Z,29.23
2017-05-05T19:21:30.903Z,27.22
2017-05-05T19:23:58.457Z,27.58
2017-05-05T19:26:26.091Z,27.67
2017-05-05T19:28:53.708Z,28.52
2017-05-05T19:31:21.736Z,26.30
2017-05-05T19:33:49.493Z,27.93
2017-05-05T19:36:17.232Z,30.08
2017-05-05T19:38:44.764Z,28.67
2017-05-05T19:41:12.363Z,26.35
2017-05-05T19:43:39.975Z,28.43
2017-05-05T19:46:07.683Z,26.87
2017-05-05T19:48:35.267Z,24.45
2017-05-05T19:51:03.059Z,24.95
2017-05-05T19:53:31.448Z,26.65
2017-05-05T19:55:59.159Z,28.33
2017-05-05T19:58:26.752Z,25.07
2017-05-05T20:00:55.055Z,27.92
2017-05-05T20:03:22.623Z,26.82
2017-05-05T20:05:50.240Z,26.92
2017-05-05T20:08:18.605Z,26.67
2017-05-05T20:10:47.054Z,27.80
2017-05-05T20:13:14.607Z,25.12
2017-05-05T20:15:42.156Z,25.98
2017-05-05T20:18:09.988Z,25.70
2017-05-05T20:20:38.419Z,25.90
2017-05-05T20:23:06.004Z,24.65
2017-05-05T20:25:33.561Z,23.97
2017-05-05T20:28:01.936Z,27.12
2017-05-05T20:30:30.256Z,26.73
2017-05-05T20:33:03.997Z,26.55
2017-05-05T20:35:31.773Z,24.47
2017-05-05T20:38:00.087Z,25.15
2017-05-05T20:40:27.675Z,24.37
2017-05-05T20:42:55.681Z,28.37
2017-05-05T20:45:24.134Z,26.37
2017-05-05T20:47:51.686Z,26.00
2017-05-05T20:50:19.272Z,25.10
2017-05-05T20:52:47.175Z,27.67
2017-05-05T20:55:14.766Z,27.25
2017-05-05T20:57:42.623Z,28.75
2017-05-05T21:00:10.182Z,26.10
2017-05-05T21:02:37.973Z,26.60
2017-05-05T21:05:05.514Z,25.30
2017-05-05T21:07:33.291Z,25.98
2017-05-05T21:10:00.863Z,24.80
2017-05-05T21:12:29.271Z,23.57
2017-05-05T21:14:56.803Z,23.50
2017-05-05T21:17:24.398Z,23.98
2017-05-05T21:19:52.144Z,29.62
2017-05-05T21:22:19.748Z,28.52
2017-05-05T21:24:47.274Z,27.32
2017-05-05T21:27:14.874Z,29.53
2017-05-05T21:29:42.651Z,28.52
2017-05-05T21:32:11.154Z,29.67
2017-05-05T21:34:39.510Z,27.32
2017-05-05T21:37:07.102Z,26.27
2017-05-05T21:39:34.660Z,24.82
2017-05-05T21:42:02.559Z,23.88
2017-05-05T21:44:30.160Z,25.62
2017-05-05T21:46:58.104Z,29.42
2017-05-05T21:49:25.990Z,26.60
2017-05-05T21:51:53.710Z,26.20
2017-05-05T21:54:21.576Z,26.73
2017-05-05T21:56:49.356Z,26.22
2017-05-05T21:59:16.963Z,24.15
2017-05-05T22:01:44.579Z,25.38
2017-05-05T22:04:12.153Z,26.72
2017-05-05T22:06:40.848Z,29.08
2017-05-05T22:09:09.210Z,27.67
2017-05-05T22:11:36.758Z,28.97
2017-05-05T22:14:04.304Z,26.27
2017-05-05T22:16:32.003Z,24.37
2017-05-05T22:18:59.583Z,30.15
2017-05-05T22:21:27.354Z,27.50
2017-05-05T22:23:54.949Z,26.32
2017-05-05T22:26:22.607Z,29.58
2017-05-05T22:28:50.144Z,26.87
2017-05-05T22:31:17.745Z,28.08
2017-05-05T22:33:46.081Z,29.73
2017-05-05T22:36:13.686Z,27.92
2017-05-05T22:38:41.980Z,27.05
2017-05-05T22:41:09.713Z,30.00
2017-05-05T22:43:38.311Z,29.47
2017-05-05T22:46:06.697Z,27.25
2017-05-05T22:48:34.376Z,25.63
2017-05-05T22:51:02.040Z,27.90
2017-05-05T22:53:29.811Z,27.58
2017-05-05T22:55:57.508Z,28.38
2017-05-05T22:58:25.224Z,27.58
2017-05-05T23:00:52.769Z,27.10
2017-05-05T23:03:20.328Z,30.57
2017-05-05T23:05:48.181Z,28.55
2017-05-05T23:08:15.736Z,28.83
2017-05-05T23:10:44.044Z,28.18
2017-05-05T23:13:11.877Z,27.77
2017-05-05T23:15:39.440Z,30.68
2017-05-05T23:18:07.148Z,25.85
2017-05-05T23:20:34.961Z,27.90
2017-05-05T23:23:02.560Z,28.00
2017-05-05T23:25:30.083Z,28.00
2017-05-05T23:27:57.628Z,26.93
2017-05-05T23:30:25.184Z,30.13
2017-05-05T23:32:53.708Z,27.92
2017-05-05T23:35:21.337Z,28.52
2017-05-05T23:37:49.250Z,27.75
2017-05-05T23:40:17.059Z,29.68
2017-05-05T23:42:44.721Z,27.23
2017-05-05T23:45:12.491Z,29.75
2017-05-05T23:47:40.069Z,29.65
2017-05-05T23:50:07.901Z,28.92
2017-05-05T23:52:35.604Z,28.77
2017-05-05T23:55:04.308Z,26.22
2017-05-05T23:57:32.690Z,29.08
